Time;durP1;ratioP1;P1;durP2;ratioP2;P2;SDS_P1;SDS_P2;PMS_P1;PMS_P2;Temp;Humidity;BMP_temperature;BMP_pressure;BME280_temperature;BME280_humidity;BME280_pressure;Samples;Min_cycle;Max_cycle;Signal;HPM_P1;HPM_P2
2022/01/12 00:01:15;;;;;;;73.78;39.17;;;;;;;;;;5091393;28;20040;-50
2022/01/12 00:03:44;;;;;;;69.05;37.42;;;;;;;;;;5091208;28;20051;-47
2022/01/12 00:06:14;;;;;;;59.05;34.33;;;;;;;;;;5091853;28;20036;-47
2022/01/12 00:08:41;;;;;;;59.55;31.58;;;;;;;;;;5091655;28;20557;-47
2022/01/12 00:11:10;;;;;;;55.80;31.85;;;;;;;;;;5091120;28;20039;-48
2022/01/12 00:13:42;;;;;;;54.17;30.13;;;;;;;;;;5091261;28;20040;-48
2022/01/12 00:16:11;;;;;;;57.72;31.27;;;;;;;;;;5091197;28;20056;-47
2022/01/12 00:18:48;;;;;;;53.97;31.02;;;;;;;;;;5091582;28;20084;-48
2022/01/12 00:21:24;;;;;;;58.47;32.50;;;;;;;;;;5089340;28;20044;-49
2022/01/12 00:23:50;;;;;;;62.10;35.45;;;;;;;;;;5091365;28;20036;-47
2022/01/12 00:34:22;;;;;;;71.47;38.45;;;;;;;;;;5091377;28;20047;-46
2022/01/12 00:36:48;;;;;;;66.35;33.45;;;;;;;;;;5091034;28;20123;-47
2022/01/12 00:39:17;;;;;;;68.90;33.83;;;;;;;;;;5090904;28;20036;-48
2022/01/12 00:41:43;;;;;;;68.22;35.35;;;;;;;;;;5090497;28;20043;-48
2022/01/12 00:44:10;;;;;;;72.90;37.85;;;;;;;;;;5091025;28;20040;-46
2022/01/12 00:46:37;;;;;;;65.13;34.17;;;;;;;;;;5091122;28;20218;-48
2022/01/12 00:49:03;;;;;;;67.35;36.05;;;;;;;;;;5090773;28;20039;-47
2022/01/12 00:51:34;;;;;;;57.35;32.47;;;;;;;;;;5089781;28;20063;-47
2022/01/12 00:54:00;;;;;;;54.17;30.90;;;;;;;;;;5092993;28;20047;-47
2022/01/12 00:56:27;;;;;;;66.20;33.17;;;;;;;;;;5091761;28;20040;-47
2022/01/12 00:58:53;;;;;;;61.83;32.22;;;;;;;;;;5092711;28;20073;-47
2022/01/12 01:01:20;;;;;;;57.70;32.15;;;;;;;;;;5092833;28;20096;-47
2022/01/12 01:03:47;;;;;;;65.15;34.28;;;;;;;;;;5090652;28;20564;-46
2022/01/12 01:06:13;;;;;;;53.60;31.33;;;;;;;;;;5089938;28;20036;-48
2022/01/12 01:08:40;;;;;;;49.83;29.85;;;;;;;;;;5091645;28;20058;-46
2022/01/12 01:11:06;;;;;;;55.10;31.83;;;;;;;;;;5091263;28;20089;-46
2022/01/12 01:13:43;;;;;;;52.58;30.45;;;;;;;;;;5091500;28;20036;-47
2022/01/12 01:16:20;;;;;;;61.35;32.47;;;;;;;;;;5091569;28;20503;-47
2022/01/12 01:27:15;;;;;;;48.28;28.92;;;;;;;;;;5091827;28;20040;-51
2022/01/12 01:29:41;;;;;;;54.75;30.80;;;;;;;;;;5091568;28;20032;-48
2022/01/12 01:32:12;;;;;;;48.58;28.33;;;;;;;;;;5090783;28;20445;-48
2022/01/12 01:34:47;;;;;;;58.88;32.25;;;;;;;;;;5089911;28;20068;-48
2022/01/12 01:37:16;;;;;;;54.47;30.33;;;;;;;;;;5091106;28;20055;-47
2022/01/12 01:39:57;;;;;;;;;;;;;;;;;;5078680;28;20048;-48
2022/01/12 01:42:41;;;;;;;55.35;31.08;;;;;;;;;;5090684;28;19916;-47
2022/01/12 01:53:51;;;;;;;59.35;32.70;;;;;;;;;;5090560;28;20640;-47
2022/01/12 01:56:25;;;;;;;52.25;30.05;;;;;;;;;;5091129;28;20048;-49
2022/01/12 01:58:51;;;;;;;63.03;33.88;;;;;;;;;;5090720;28;20119;-49
2022/01/12 02:01:37;;;;;;;59.67;32.05;;;;;;;;;;5090397;28;20064;-50
2022/01/12 02:04:05;;;;;;;64.43;33.53;;;;;;;;;;5090281;28;20481;-47
2022/01/12 02:06:36;;;;;;;72.90;35.22;;;;;;;;;;5090464;28;20031;-49
2022/01/12 02:09:08;;;;;;;67.68;35.20;;;;;;;;;;5072407;28;20040;-48
2022/01/12 02:11:34;;;;;;;82.50;37.30;;;;;;;;;;5090635;28;20032;-49
2022/01/12 02:14:00;;;;;;;59.17;31.27;;;;;;;;;;5091607;28;20101;-51
2022/01/12 02:16:48;;;;;;;72.43;34.28;;;;;;;;;;5091643;28;20482;-47
2022/01/12 02:19:42;;;;;;;77.53;36.70;;;;;;;;;;5088921;28;20044;-48
2022/01/12 02:36:32;;;;;;;67.55;34.97;;;;;;;;;;5090799;28;20133;-50
2022/01/12 02:41:54;;;;;;;70.72;35.22;;;;;;;;;;5090577;28;20405;-49
2022/01/12 02:55:23;;;;;;;84.28;37.40;;;;;;;;;;5090667;28;20044;-50
2022/01/12 02:57:49;;;;;;;111.40;44.75;;;;;;;;;;5090831;28;20067;-50
2022/01/12 03:00:17;;;;;;;84.93;37.13;;;;;;;;;;5090824;28;20040;-48
2022/01/12 03:02:50;;;;;;;82.35;37.05;;;;;;;;;;5071848;28;20567;-51
2022/01/12 03:07:53;;;;;;;96.55;40.10;;;;;;;;;;5090112;28;20394;-47
2022/01/12 03:10:28;;;;;;;75.30;35.25;;;;;;;;;;5072078;28;20050;-50
2022/01/12 03:12:54;;;;;;;106.32;40.38;;;;;;;;;;5089446;28;20505;-47
2022/01/12 03:15:20;;;;;;;96.18;38.65;;;;;;;;;;5089508;28;20119;-47
2022/01/12 03:17:46;;;;;;;95.15;37.83;;;;;;;;;;5089997;28;20040;-47
2022/01/12 03:20:38;;;;;;;76.55;34.40;;;;;;;;;;5092121;28;20048;-47
2022/01/12 03:23:04;;;;;;;117.97;40.33;;;;;;;;;;5093336;28;20120;-48
2022/01/12 03:25:30;;;;;;;117.15;41.90;;;;;;;;;;5093819;28;20036;-47
2022/01/12 03:28:00;;;;;;;93.35;37.92;;;;;;;;;;5093488;28;20036;-47
2022/01/12 03:30:26;;;;;;;106.22;40.55;;;;;;;;;;5094049;28;20562;-48
2022/01/12 03:33:08;;;;;;;159.25;47.25;;;;;;;;;;5093422;28;20047;-47
2022/01/12 03:38:32;;;;;;;233.52;55.83;;;;;;;;;;5003540;28;20050;-47
2022/01/12 03:40:58;;;;;;;140.57;47.00;;;;;;;;;;5093201;28;20101;-46
2022/01/12 03:43:24;;;;;;;115.97;40.90;;;;;;;;;;5093322;28;20036;-46
2022/01/12 03:45:50;;;;;;;117.10;42.67;;;;;;;;;;5075257;28;20048;-47
2022/01/12 03:48:16;;;;;;;125.00;43.25;;;;;;;;;;5093397;28;20497;-49
2022/01/12 03:51:10;;;;;;;87.63;37.72;;;;;;;;;;5092114;28;20091;-47
2022/01/12 03:53:36;;;;;;;100.88;38.63;;;;;;;;;;5093005;28;20498;-48
2022/01/12 03:56:02;;;;;;;124.50;43.53;;;;;;;;;;5093095;28;20036;-52
2022/01/12 03:58:29;;;;;;;143.52;46.05;;;;;;;;;;5093061;28;20048;-47
2022/01/12 04:00:55;;;;;;;155.15;46.92;;;;;;;;;;5093140;28;20044;-46
2022/01/12 04:03:21;;;;;;;106.05;40.70;;;;;;;;;;5092290;28;20098;-47
2022/01/12 04:08:23;;;;;;;103.35;40.30;;;;;;;;;;5092921;28;20516;-47
2022/01/12 04:10:57;;;;;;;189.13;49.22;;;;;;;;;;5093110;28;20039;-49
2022/01/12 04:13:25;;;;;;;114.97;43.13;;;;;;;;;;5092814;28;20493;-47
2022/01/12 04:15:53;;;;;;;138.27;45.47;;;;;;;;;;5092460;28;20394;-47
2022/01/12 04:18:19;;;;;;;188.80;51.55;;;;;;;;;;5092879;28;20044;-50
2022/01/12 04:20:48;;;;;;;184.07;51.08;;;;;;;;;;5094870;28;20039;-47
2022/01/12 04:23:17;;;;;;;165.10;48.50;;;;;;;;;;5093889;28;20055;-50
2022/01/12 04:25:44;;;;;;;150.75;47.88;;;;;;;;;;5112828;28;20489;-49
2022/01/12 04:28:10;;;;;;;178.07;51.40;;;;;;;;;;5112649;28;20027;-47
2022/01/12 04:30:36;;;;;;;100.35;39.67;;;;;;;;;;5112881;28;20045;-48
2022/01/12 04:33:02;;;;;;;208.73;50.58;;;;;;;;;;5112336;28;20032;-47
2022/01/12 04:35:35;;;;;;;201.65;49.22;;;;;;;;;;5112156;28;20039;-52
2022/01/12 04:38:02;;;;;;;135.20;42.45;;;;;;;;;;5111869;28;20039;-50
2022/01/12 04:40:28;;;;;;;146.27;44.63;;;;;;;;;;5097575;28;20199;-47
2022/01/12 04:42:56;;;;;;;166.75;46.72;;;;;;;;;;5092540;28;20093;-50
2022/01/12 04:48:01;;;;;;;189.35;50.25;;;;;;;;;;5102883;28;20093;-49
2022/01/12 04:50:29;;;;;;;116.40;41.83;;;;;;;;;;5113567;28;20032;-50
2022/01/12 04:52:55;;;;;;;108.35;39.58;;;;;;;;;;5094743;28;20497;-47
2022/01/12 04:55:22;;;;;;;137.75;45.35;;;;;;;;;;5112887;28;20040;-47
2022/01/12 04:57:49;;;;;;;176.25;49.97;;;;;;;;;;5112959;28;20122;-48
2022/01/12 05:00:16;;;;;;;139.18;44.65;;;;;;;;;;5102715;28;20036;-47
2022/01/12 05:13:51;;;;;;;123.93;46.38;;;;;;;;;;5112289;28;20074;-50
2022/01/12 05:16:18;;;;;;;169.18;65.25;;;;;;;;;;5107219;28;20051;-48
2022/01/12 05:18:45;;;;;;;120.13;47.50;;;;;;;;;;5091483;28;20047;-49
2022/01/12 05:21:11;;;;;;;98.38;40.47;;;;;;;;;;5092970;28;20488;-49
2022/01/12 05:23:38;;;;;;;95.90;39.28;;;;;;;;;;5095956;28;20040;-51
2022/01/12 05:26:04;;;;;;;128.30;43.97;;;;;;;;;;5095332;28;20055;-48
2022/01/12 05:28:31;;;;;;;159.25;49.25;;;;;;;;;;5091044;28;20040;-47
2022/01/12 05:30:58;;;;;;;134.95;45.08;;;;;;;;;;5104106;28;20060;-48
2022/01/12 05:33:25;;;;;;;398.92;170.10;;;;;;;;;;5111774;28;20039;-47
2022/01/12 05:35:56;;;;;;;154.02;52.45;;;;;;;;;;5093580;28;20055;-47
2022/01/12 05:38:22;;;;;;;122.50;50.70;;;;;;;;;;5110306;28;20051;-47
2022/01/12 05:40:55;;;;;;;102.47;39.67;;;;;;;;;;5108914;28;20043;-47
2022/01/12 05:43:26;;;;;;;117.63;43.55;;;;;;;;;;5110573;28;20051;-47
2022/01/12 05:45:54;;;;;;;125.50;43.17;;;;;;;;;;5096917;28;20039;-48
2022/01/12 05:50:48;;;;;;;103.40;42.42;;;;;;;;;;5093470;28;20047;-49
2022/01/12 05:53:15;;;;;;;90.00;37.25;;;;;;;;;;5104315;28;20050;-49
2022/01/12 05:55:41;;;;;;;102.07;38.13;;;;;;;;;;5102481;28;20047;-46
2022/01/12 05:58:07;;;;;;;115.13;41.25;;;;;;;;;;5091400;28;20093;-48
2022/01/12 06:00:34;;;;;;;146.43;42.90;;;;;;;;;;5091198;28;20083;-47
2022/01/12 06:03:01;;;;;;;108.88;38.28;;;;;;;;;;5090048;28;20036;-48
2022/01/12 06:05:32;;;;;;;83.63;34.88;;;;;;;;;;5090558;28;20428;-47
2022/01/12 06:07:58;;;;;;;98.28;36.28;;;;;;;;;;5090511;28;20119;-49
2022/01/12 06:10:24;;;;;;;79.72;33.83;;;;;;;;;;5089896;28;20113;-48
2022/01/12 06:12:51;;;;;;;92.18;35.97;;;;;;;;;;5087302;28;20032;-47
2022/01/12 06:15:24;;;;;;;105.18;41.22;;;;;;;;;;5086919;28;20036;-49
2022/01/12 06:17:50;;;;;;;120.60;46.65;;;;;;;;;;5085983;28;20091;-47
2022/01/12 06:20:16;;;;;;;106.40;41.03;;;;;;;;;;5089860;28;20118;-47
2022/01/12 06:22:42;;;;;;;98.85;38.10;;;;;;;;;;5089787;28;20111;-49
2022/01/12 06:25:13;;;;;;;84.10;35.38;;;;;;;;;;5090220;28;20051;-51
2022/01/12 06:27:48;;;;;;;110.20;38.45;;;;;;;;;;5088041;28;20040;-50
2022/01/12 06:32:54;;;;;;;110.00;43.13;;;;;;;;;;5089814;28;20047;-48
2022/01/12 06:35:20;;;;;;;88.18;38.30;;;;;;;;;;5071733;28;20039;-46
2022/01/12 06:37:47;;;;;;;74.50;35.03;;;;;;;;;;5090528;28;20035;-47
2022/01/12 06:40:13;;;;;;;85.38;36.17;;;;;;;;;;5090455;28;20090;-47
2022/01/12 06:42:39;;;;;;;84.20;34.05;;;;;;;;;;5089864;28;20066;-48
2022/01/12 06:45:06;;;;;;;98.35;37.00;;;;;;;;;;5090298;28;20044;-47
2022/01/12 06:47:32;;;;;;;124.65;40.45;;;;;;;;;;5090113;28;20085;-47
2022/01/12 06:49:58;;;;;;;76.28;32.67;;;;;;;;;;5089597;28;20043;-46
2022/01/12 06:52:24;;;;;;;84.60;32.97;;;;;;;;;;5089647;28;20543;-46
2022/01/12 06:58:14;;;;;;;112.70;44.17;;;;;;;;;;5089774;28;20031;-47
2022/01/12 07:00:40;;;;;;;96.65;40.53;;;;;;;;;;5090090;28;20047;-47
2022/01/12 07:03:06;;;;;;;122.18;46.42;;;;;;;;;;5089462;28;20504;-47
2022/01/12 07:05:32;;;;;;;118.45;48.17;;;;;;;;;;5089710;28;20044;-47
2022/01/12 07:07:58;;;;;;;102.45;45.63;;;;;;;;;;5089880;28;20064;-47
2022/01/12 07:10:24;;;;;;;90.40;42.20;;;;;;;;;;5071997;28;20040;-47
2022/01/12 07:12:50;;;;;;;84.50;38.95;;;;;;;;;;5071276;28;20081;-50
2022/01/12 07:15:16;;;;;;;94.00;37.45;;;;;;;;;;5089677;28;20047;-50
2022/01/12 07:17:42;;;;;;;109.30;42.80;;;;;;;;;;5090079;28;20048;-48
2022/01/12 07:20:09;;;;;;;89.80;41.17;;;;;;;;;;5071896;28;20052;-50
2022/01/12 07:22:35;;;;;;;85.95;35.53;;;;;;;;;;5089810;28;20044;-47
2022/01/12 07:25:01;;;;;;;74.65;33.30;;;;;;;;;;5090313;28;20481;-48
2022/01/12 07:27:27;;;;;;;81.30;33.03;;;;;;;;;;5089742;28;20142;-48
2022/01/12 07:29:53;;;;;;;64.07;27.55;;;;;;;;;;5090004;28;20435;-48
2022/01/12 07:32:19;;;;;;;69.65;29.70;;;;;;;;;;5089137;28;20048;-49
2022/01/12 07:34:45;;;;;;;66.45;28.70;;;;;;;;;;5089777;28;20040;-47
2022/01/12 07:37:11;;;;;;;74.57;31.42;;;;;;;;;;5089685;28;20049;-47
2022/01/12 07:39:37;;;;;;;69.30;29.75;;;;;;;;;;5071519;28;20055;-46
2022/01/12 07:42:03;;;;;;;69.82;28.95;;;;;;;;;;5089149;28;20118;-47
2022/01/12 07:44:29;;;;;;;66.30;28.27;;;;;;;;;;5071285;28;20048;-50
2022/01/12 07:46:56;;;;;;;72.75;31.05;;;;;;;;;;5090241;28;20386;-47
2022/01/12 07:49:22;;;;;;;67.07;32.08;;;;;;;;;;5089956;28;20032;-49
2022/01/12 07:51:48;;;;;;;80.85;34.33;;;;;;;;;;5090042;28;20036;-48
2022/01/12 07:54:14;;;;;;;74.93;33.88;;;;;;;;;;5089862;28;20032;-50
2022/01/12 07:56:40;;;;;;;79.82;35.33;;;;;;;;;;5090009;28;20499;-46
2022/01/12 07:59:06;;;;;;;65.93;29.27;;;;;;;;;;5090214;28;20481;-47
2022/01/12 08:01:32;;;;;;;72.88;29.20;;;;;;;;;;5089357;28;20032;-48
2022/01/12 08:03:58;;;;;;;66.05;28.98;;;;;;;;;;5090155;28;20044;-48
2022/01/12 08:06:26;;;;;;;57.75;27.52;;;;;;;;;;5091417;28;20311;-49
2022/01/12 08:08:52;;;;;;;74.35;29.55;;;;;;;;;;5093616;28;20409;-47
2022/01/12 08:11:18;;;;;;;61.47;27.58;;;;;;;;;;5093402;28;20032;-48
2022/01/12 08:13:45;;;;;;;73.60;29.27;;;;;;;;;;5093324;28;20121;-48
2022/01/12 08:16:11;;;;;;;65.88;28.52;;;;;;;;;;5093494;28;20169;-47
2022/01/12 08:18:37;;;;;;;60.33;25.80;;;;;;;;;;5093570;28;20042;-48
2022/01/12 08:21:05;;;;;;;63.85;28.13;;;;;;;;;;5093253;28;20051;-47
2022/01/12 08:23:31;;;;;;;66.18;28.95;;;;;;;;;;5092395;28;20054;-47
2022/01/12 08:25:57;;;;;;;64.78;26.85;;;;;;;;;;5057773;28;20047;-49
2022/01/12 08:28:23;;;;;;;64.35;26.42;;;;;;;;;;5092934;28;20040;-48
2022/01/12 08:30:49;;;;;;;54.97;25.58;;;;;;;;;;5093016;28;20036;-48
2022/01/12 08:33:16;;;;;;;66.57;28.95;;;;;;;;;;5092424;28;20035;-49
2022/01/12 08:35:43;;;;;;;63.38;28.60;;;;;;;;;;5092449;28;20404;-48
2022/01/12 08:38:09;;;;;;;56.80;26.27;;;;;;;;;;5091948;28;20055;-46
2022/01/12 08:40:38;;;;;;;67.38;27.73;;;;;;;;;;5092519;28;20489;-54
2022/01/12 08:43:04;;;;;;;71.07;28.27;;;;;;;;;;5091603;28;20077;-46
2022/01/12 08:45:30;;;;;;;70.53;28.30;;;;;;;;;;5092195;28;20047;-47
2022/01/12 08:47:58;;;;;;;69.82;27.85;;;;;;;;;;5092406;28;20038;-47
2022/01/12 08:50:24;;;;;;;65.00;27.65;;;;;;;;;;5092302;28;20040;-48
2022/01/12 08:52:51;;;;;;;64.95;25.77;;;;;;;;;;5091462;28;20369;-47
2022/01/12 08:55:18;;;;;;;69.57;28.17;;;;;;;;;;5092493;28;20405;-48
2022/01/12 08:57:44;;;;;;;75.97;30.92;;;;;;;;;;5091930;28;20046;-50
2022/01/12 09:00:11;;;;;;;61.78;27.23;;;;;;;;;;5092308;28;20036;-48
2022/01/12 09:02:37;;;;;;;69.40;28.55;;;;;;;;;;5091643;28;20085;-47
2022/01/12 09:05:04;;;;;;;63.40;27.60;;;;;;;;;;5091883;28;20040;-47
2022/01/12 09:07:30;;;;;;;61.33;26.38;;;;;;;;;;5092051;28;20458;-52
2022/01/12 09:09:56;;;;;;;62.28;26.48;;;;;;;;;;5092140;28;20127;-47
2022/01/12 09:12:22;;;;;;;83.75;31.42;;;;;;;;;;5091801;28;20210;-47
2022/01/12 09:14:50;;;;;;;67.68;28.38;;;;;;;;;;5092031;28;20736;-47
2022/01/12 09:17:18;;;;;;;89.53;36.35;;;;;;;;;;5091003;28;20043;-47
2022/01/12 09:19:46;;;;;;;87.07;29.23;;;;;;;;;;5092197;28;20126;-49
2022/01/12 09:22:12;;;;;;;86.07;33.03;;;;;;;;;;5091369;28;20614;-47
2022/01/12 09:24:38;;;;;;;76.63;31.42;;;;;;;;;;5091532;28;20509;-47
2022/01/12 09:27:04;;;;;;;86.57;35.65;;;;;;;;;;5091592;28;20040;-47
2022/01/12 09:29:30;;;;;;;81.85;30.95;;;;;;;;;;5073806;28;20040;-48
2022/01/12 09:31:56;;;;;;;64.88;28.33;;;;;;;;;;5091581;28;20036;-48
2022/01/12 09:34:22;;;;;;;67.15;27.00;;;;;;;;;;5091354;28;20047;-48
2022/01/12 09:36:49;;;;;;;69.03;29.67;;;;;;;;;;5091590;28;20524;-47
2022/01/12 09:39:15;;;;;;;70.70;26.42;;;;;;;;;;5091341;28;20031;-47
2022/01/12 09:41:41;;;;;;;67.60;24.75;;;;;;;;;;5090485;28;20040;-50
2022/01/12 09:44:07;;;;;;;61.58;24.42;;;;;;;;;;5091086;28;20405;-50
2022/01/12 09:46:33;;;;;;;71.50;26.17;;;;;;;;;;5091071;28;20072;-48
2022/01/12 09:49:01;;;;;;;61.95;24.02;;;;;;;;;;5090905;28;20575;-51
2022/01/12 09:51:33;;;;;;;61.78;24.05;;;;;;;;;;5090687;28;20086;-47
2022/01/12 09:53:59;;;;;;;68.05;31.15;;;;;;;;;;5091724;28;20072;-48
2022/01/12 09:56:28;;;;;;;89.97;34.90;;;;;;;;;;5074177;28;20075;-48
2022/01/12 09:58:55;;;;;;;60.70;22.35;;;;;;;;;;5092055;28;20047;-49
2022/01/12 10:01:27;;;;;;;57.75;23.00;;;;;;;;;;5091493;28;20043;-48
2022/01/12 10:04:15;;;;;;;59.35;24.05;;;;;;;;;;5090706;28;20043;-49
2022/01/12 10:06:45;;;;;;;54.05;23.73;;;;;;;;;;5090884;28;20047;-48
2022/01/12 10:09:18;;;;;;;60.67;23.85;;;;;;;;;;5090763;28;20459;-49
2022/01/12 10:12:01;;;;;;;55.03;21.95;;;;;;;;;;5089969;28;20036;-50
2022/01/12 10:14:39;;;;;;;56.15;23.42;;;;;;;;;;5089528;28;20204;-50
2022/01/12 10:17:05;;;;;;;39.28;19.17;;;;;;;;;;5073096;28;20493;-50
2022/01/12 10:19:35;;;;;;;44.47;18.48;;;;;;;;;;5090622;28;20036;-49
2022/01/12 10:22:07;;;;;;;43.28;19.00;;;;;;;;;;5068672;28;20036;-49
2022/01/12 10:24:36;;;;;;;35.33;14.15;;;;;;;;;;5086794;28;20070;-49
2022/01/12 10:27:10;;;;;;;34.78;13.38;;;;;;;;;;5087596;28;20464;-49
2022/01/12 10:29:36;;;;;;;34.83;15.43;;;;;;;;;;5086324;28;20032;-50
2022/01/12 10:32:08;;;;;;;33.05;13.40;;;;;;;;;;5086431;28;20047;-48
2022/01/12 10:34:46;;;;;;;35.28;12.05;;;;;;;;;;5069320;28;20048;-49
2022/01/12 10:37:15;;;;;;;30.48;13.85;;;;;;;;;;5087043;28;20043;-49
2022/01/12 10:39:45;;;;;;;32.13;12.18;;;;;;;;;;5088734;28;20032;-50
2022/01/12 10:42:13;;;;;;;32.60;13.00;;;;;;;;;;5090419;28;20439;-47
2022/01/12 10:44:47;;;;;;;30.92;12.60;;;;;;;;;;5090676;28;20040;-47
2022/01/12 10:47:32;;;;;;;28.80;11.90;;;;;;;;;;5090442;28;20036;-47
2022/01/12 10:50:06;;;;;;;27.90;10.95;;;;;;;;;;5090717;28;20079;-49
2022/01/12 10:52:41;;;;;;;27.77;10.50;;;;;;;;;;5090461;28;20489;-49
2022/01/12 10:55:12;;;;;;;32.17;14.63;;;;;;;;;;5073209;28;20102;-48
2022/01/12 10:57:40;;;;;;;31.33;14.23;;;;;;;;;;5090547;28;20059;-47
2022/01/12 11:00:20;;;;;;;24.05;8.85;;;;;;;;;;5090274;28;20050;-49
2022/01/12 11:02:47;;;;;;;21.75;7.93;;;;;;;;;;5090107;28;20500;-47
2022/01/12 11:05:13;;;;;;;21.50;8.15;;;;;;;;;;5072684;28;20054;-47
2022/01/12 11:07:42;;;;;;;24.17;7.30;;;;;;;;;;5090455;28;20032;-50
2022/01/12 11:10:10;;;;;;;24.52;7.40;;;;;;;;;;5089949;28;20472;-47
2022/01/12 11:12:43;;;;;;;20.27;7.18;;;;;;;;;;5089492;28;20040;-48
2022/01/12 11:15:10;;;;;;;23.20;8.37;;;;;;;;;;5090178;28;20070;-47
2022/01/12 11:17:38;;;;;;;25.40;7.32;;;;;;;;;;5090242;28;20040;-47
2022/01/12 11:20:24;;;;;;;24.17;8.40;;;;;;;;;;5089881;28;20375;-47
2022/01/12 11:23:00;;;;;;;23.60;8.05;;;;;;;;;;5089075;28;20039;-47
2022/01/12 11:25:31;;;;;;;23.88;7.45;;;;;;;;;;5089860;28;20390;-48
2022/01/12 11:28:06;;;;;;;22.90;9.20;;;;;;;;;;5090041;28;20420;-48
2022/01/12 11:30:33;;;;;;;25.90;7.95;;;;;;;;;;5089967;28;20460;-49
2022/01/12 11:33:00;;;;;;;27.88;9.38;;;;;;;;;;5071427;28;20032;-47
2022/01/12 11:35:32;;;;;;;28.60;9.57;;;;;;;;;;5089180;28;20090;-47
2022/01/12 11:37:59;;;;;;;27.45;9.73;;;;;;;;;;5089732;28;20054;-48
2022/01/12 11:40:54;;;;;;;30.00;10.57;;;;;;;;;;5090306;28;20097;-49
2022/01/12 11:43:35;;;;;;;29.48;10.95;;;;;;;;;;5063188;28;20060;-49
2022/01/12 11:46:14;;;;;;;30.23;11.43;;;;;;;;;;5093351;28;20040;-51
2022/01/12 11:48:50;;;;;;;29.10;10.25;;;;;;;;;;5075896;28;20047;-47
2022/01/12 11:51:21;;;;;;;34.53;10.80;;;;;;;;;;5087564;28;20044;-48
2022/01/12 11:53:52;;;;;;;31.98;9.50;;;;;;;;;;5093686;28;20071;-50
2022/01/12 11:56:21;;;;;;;25.38;9.00;;;;;;;;;;5093384;28;20062;-48
2022/01/12 11:58:52;;;;;;;32.85;9.90;;;;;;;;;;5093889;28;20429;-48
2022/01/12 12:01:18;;;;;;;28.20;9.73;;;;;;;;;;5092529;28;20115;-51
2022/01/12 12:04:01;;;;;;;22.58;8.73;;;;;;;;;;5092830;28;20068;-52
2022/01/12 12:06:27;;;;;;;27.33;8.57;;;;;;;;;;5093286;28;20558;-49
2022/01/12 12:08:58;;;;;;;25.58;9.60;;;;;;;;;;5092952;28;20044;-50
2022/01/12 12:11:28;;;;;;;31.15;9.43;;;;;;;;;;5092166;28;20059;-48
2022/01/12 12:14:19;;;;;;;26.73;9.23;;;;;;;;;;5093021;28;20459;-48
2022/01/12 12:16:50;;;;;;;23.38;9.93;;;;;;;;;;5092156;28;20397;-48
2022/01/12 12:19:16;;;;;;;31.10;10.35;;;;;;;;;;5093402;28;20385;-49
2022/01/12 12:21:49;;;;;;;25.58;10.32;;;;;;;;;;5092324;28;20051;-51
2022/01/12 12:24:29;;;;;;;29.52;10.50;;;;;;;;;;5092664;28;20604;-50
2022/01/12 12:26:55;;;;;;;29.80;11.18;;;;;;;;;;5093230;28;20123;-51
2022/01/12 12:29:28;;;;;;;25.55;10.25;;;;;;;;;;5075102;28;20118;-47
2022/01/12 12:31:56;;;;;;;24.90;10.52;;;;;;;;;;5092178;28;20044;-49
2022/01/12 12:34:23;;;;;;;29.20;10.45;;;;;;;;;;5093320;28;20040;-47
2022/01/12 12:37:00;;;;;;;27.27;9.82;;;;;;;;;;5093273;28;20524;-48
2022/01/12 12:39:28;;;;;;;27.73;11.00;;;;;;;;;;5093104;28;20036;-48
2022/01/12 12:41:54;;;;;;;27.77;11.43;;;;;;;;;;5092530;28;20028;-48
2022/01/12 12:44:22;;;;;;;31.75;14.52;;;;;;;;;;5092337;28;20042;-49
2022/01/12 12:46:53;;;;;;;31.77;14.20;;;;;;;;;;5092527;28;20471;-51
2022/01/12 12:49:19;;;;;;;36.08;15.15;;;;;;;;;;5092258;28;20161;-48
2022/01/12 12:51:46;;;;;;;43.22;23.63;;;;;;;;;;5091867;28;20485;-48
2022/01/12 12:54:15;;;;;;;26.20;10.90;;;;;;;;;;5092224;28;20040;-50
2022/01/12 12:56:49;;;;;;;26.38;10.00;;;;;;;;;;5092474;28;20477;-47
2022/01/12 12:59:14;;;;;;;55.03;24.85;;;;;;;;;;5092388;28;20044;-48
2022/01/12 13:01:40;;;;;;;41.50;16.42;;;;;;;;;;5091671;28;20089;-51
2022/01/12 13:04:11;;;;;;;25.02;10.40;;;;;;;;;;5092489;28;20040;-49
2022/01/12 13:06:38;;;;;;;30.00;13.75;;;;;;;;;;5092435;28;20076;-49
2022/01/12 13:09:06;;;;;;;30.23;12.50;;;;;;;;;;5091839;28;20037;-48
2022/01/12 13:11:33;;;;;;;29.35;10.20;;;;;;;;;;5092157;28;20071;-47
2022/01/12 13:14:00;;;;;;;39.97;18.20;;;;;;;;;;5092376;28;20044;-47
2022/01/12 13:16:31;;;;;;;26.95;11.95;;;;;;;;;;5092218;28;20156;-47
2022/01/12 13:19:19;;;;;;;30.13;11.25;;;;;;;;;;5091973;28;20416;-52
2022/01/12 13:22:09;;;;;;;29.77;10.15;;;;;;;;;;5091435;28;20065;-47
2022/01/12 13:24:50;;;;;;;28.02;11.05;;;;;;;;;;5089998;28;20070;-47
2022/01/12 13:27:25;;;;;;;25.40;10.13;;;;;;;;;;5091885;28;20040;-47
2022/01/12 13:30:07;;;;;;;29.90;10.88;;;;;;;;;;5092168;28;20040;-48
2022/01/12 13:32:37;;;;;;;29.67;10.60;;;;;;;;;;5091633;28;20073;-48
2022/01/12 13:35:09;;;;;;;27.88;10.07;;;;;;;;;;5091917;28;20040;-49
2022/01/12 13:37:36;;;;;;;27.60;10.27;;;;;;;;;;5092183;28;20485;-47
2022/01/12 13:40:13;;;;;;;29.50;9.52;;;;;;;;;;5091735;28;20048;-47
2022/01/12 13:42:53;;;;;;;25.02;9.32;;;;;;;;;;5091221;28;20040;-49
2022/01/12 13:45:24;;;;;;;25.23;12.23;;;;;;;;;;5091475;28;20048;-49
2022/01/12 13:47:58;;;;;;;27.15;10.20;;;;;;;;;;5091653;28;20051;-47
2022/01/12 13:50:30;;;;;;;20.20;8.45;;;;;;;;;;5091836;28;20052;-51
2022/01/12 13:52:56;;;;;;;22.75;8.90;;;;;;;;;;5073217;28;20052;-48
2022/01/12 13:55:24;;;;;;;20.80;8.68;;;;;;;;;;5092058;28;20058;-47
2022/01/12 13:58:05;;;;;;;28.83;9.98;;;;;;;;;;5091620;28;20032;-47
2022/01/12 14:00:35;;;;;;;26.48;9.93;;;;;;;;;;5091827;28;20039;-47
2022/01/12 14:03:01;;;;;;;19.83;8.02;;;;;;;;;;5091206;28;20036;-48
2022/01/12 14:05:36;;;;;;;23.45;11.10;;;;;;;;;;5091507;28;20044;-48
2022/01/12 14:08:10;;;;;;;18.15;8.95;;;;;;;;;;5091973;28;20474;-47
2022/01/12 14:10:36;;;;;;;25.33;9.25;;;;;;;;;;5091726;28;20051;-47
2022/01/12 14:13:02;;;;;;;21.10;8.43;;;;;;;;;;5091059;28;20067;-47
2022/01/12 14:15:33;;;;;;;18.60;7.93;;;;;;;;;;5091464;28;20455;-47
2022/01/12 14:18:16;;;;;;;19.60;9.57;;;;;;;;;;5091299;28;20048;-51
2022/01/12 14:20:44;;;;;;;15.90;8.32;;;;;;;;;;5073141;28;20044;-51
2022/01/12 14:23:10;;;;;;;18.75;9.23;;;;;;;;;;5091387;28;20072;-48
2022/01/12 14:25:46;;;;;;;17.38;7.43;;;;;;;;;;5091364;28;20086;-51
2022/01/12 14:28:32;;;;;;;22.08;9.30;;;;;;;;;;5073718;28;20048;-52
2022/01/12 14:31:01;;;;;;;20.73;8.48;;;;;;;;;;5091551;28;20055;-48
2022/01/12 14:33:33;;;;;;;21.60;8.75;;;;;;;;;;5091588;28;20462;-50
2022/01/12 14:36:05;;;;;;;20.83;9.30;;;;;;;;;;5091373;28;20213;-47
2022/01/12 14:38:31;;;;;;;23.35;10.43;;;;;;;;;;5091581;28;20504;-51
2022/01/12 14:40:58;;;;;;;22.02;9.50;;;;;;;;;;5073125;28;20070;-49
2022/01/12 14:43:29;;;;;;;23.30;9.82;;;;;;;;;;5090690;28;20493;-47
2022/01/12 14:45:58;;;;;;;30.33;10.95;;;;;;;;;;5090485;28;20073;-47
2022/01/12 14:48:25;;;;;;;23.25;11.70;;;;;;;;;;5090811;28;20089;-49
2022/01/12 14:50:52;;;;;;;24.35;12.73;;;;;;;;;;5072773;28;20051;-47
2022/01/12 14:53:22;;;;;;;25.85;11.98;;;;;;;;;;5089795;28;20413;-47
2022/01/12 14:55:50;;;;;;;29.45;14.90;;;;;;;;;;5090684;28;20044;-47
2022/01/12 14:58:19;;;;;;;35.10;19.77;;;;;;;;;;5090467;28;20051;-47
2022/01/12 15:00:46;;;;;;;26.52;12.18;;;;;;;;;;5090119;28;20127;-47
2022/01/12 15:03:15;;;;;;;26.67;11.27;;;;;;;;;;5089786;28;20425;-48
2022/01/12 15:05:43;;;;;;;31.65;16.20;;;;;;;;;;5089904;28;20044;-47
2022/01/12 15:08:13;;;;;;;34.30;14.98;;;;;;;;;;5090483;28;20382;-48
2022/01/12 15:10:39;;;;;;;28.67;11.43;;;;;;;;;;5090311;28;20039;-47
2022/01/12 15:13:24;;;;;;;23.75;11.10;;;;;;;;;;5089511;28;20119;-48
2022/01/12 15:16:08;;;;;;;24.38;10.52;;;;;;;;;;5091510;28;20093;-47
2022/01/12 15:18:36;;;;;;;24.60;9.43;;;;;;;;;;5076109;28;20169;-47
2022/01/12 15:21:06;;;;;;;23.40;9.98;;;;;;;;;;5093582;28;20040;-46
2022/01/12 15:23:35;;;;;;;25.95;11.32;;;;;;;;;;5094023;28;20051;-47
2022/01/12 15:26:02;;;;;;;22.95;10.20;;;;;;;;;;5093977;28;20040;-47
2022/01/12 15:28:28;;;;;;;27.85;11.35;;;;;;;;;;5075925;28;20517;-48
2022/01/12 15:30:54;;;;;;;30.67;11.02;;;;;;;;;;5093580;28;20043;-49
2022/01/12 15:33:21;;;;;;;29.88;12.02;;;;;;;;;;5075414;28;20040;-48
2022/01/12 15:35:47;;;;;;;29.92;11.30;;;;;;;;;;5093827;28;20040;-47
2022/01/12 15:38:19;;;;;;;29.73;11.60;;;;;;;;;;5092975;28;20417;-47
2022/01/12 15:40:48;;;;;;;23.83;11.02;;;;;;;;;;5093660;28;20044;-48
2022/01/12 15:43:15;;;;;;;23.95;10.32;;;;;;;;;;5092648;28;20044;-49
2022/01/12 15:45:41;;;;;;;24.90;11.10;;;;;;;;;;5093451;28;20040;-50
2022/01/12 15:48:12;;;;;;;21.90;10.30;;;;;;;;;;5075763;28;20032;-48
2022/01/12 15:50:41;;;;;;;21.65;10.55;;;;;;;;;;5093779;28;20409;-49
2022/01/12 15:53:07;;;;;;;21.88;10.60;;;;;;;;;;5092925;28;20043;-49